sensor_id;sensor_type;location;lat;lon;timestamp;pressure;altitude;pressure_sealevel;temperature;humidity
60433;BME280;46286;48.098;11.590;2023-04-07T00:00:56;95484.69;;;2.41;90.82
60433;BME280;46286;48.098;11.590;2023-04-07T00:03:22;95493.53;;;2.40;90.45
60433;BME280;46286;48.098;11.590;2023-04-07T00:05:47;95489.44;;;2.44;91.29
60433;BME280;46286;48.098;11.590;2023-04-07T00:08:13;95485.84;;;2.45;90.85
60433;BME280;46286;48.098;11.590;2023-04-07T00:10:39;95491.50;;;2.42;90.05
60433;BME280;46286;48.098;11.590;2023-04-07T00:13:05;95497.84;;;2.46;90.41
60433;BME280;46286;48.098;11.590;2023-04-07T00:15:31;95497.13;;;2.39;91.82
60433;BME280;46286;48.098;11.590;2023-04-07T00:17:56;95497.47;;;2.42;91.17
60433;BME280;46286;48.098;11.590;2023-04-07T00:20:22;95495.75;;;2.36;91.74
60433;BME280;46286;48.098;11.590;2023-04-07T00:22:48;95481.16;;;2.35;92.41
60433;BME280;46286;48.098;11.590;2023-04-07T00:25:13;95482.75;;;2.36;91.81
60433;BME280;46286;48.098;11.590;2023-04-07T00:27:39;95489.03;;;2.47;92.06
60433;BME280;46286;48.098;11.590;2023-04-07T00:30:05;95484.34;;;2.37;92.12
60433;BME280;46286;48.098;11.590;2023-04-07T00:32:31;95483.97;;;2.34;92.83
60433;BME280;46286;48.098;11.590;2023-04-07T00:34:56;95485.56;;;2.35;93.07
60433;BME280;46286;48.098;11.590;2023-04-07T00:37:22;95487.03;;;2.31;93.99
60433;BME280;46286;48.098;11.590;2023-04-07T00:39:50;95488.63;;;2.32;93.91
60433;BME280;46286;48.098;11.590;2023-04-07T00:42:16;95485.50;;;2.41;93.93
60433;BME280;46286;48.098;11.590;2023-04-07T00:44:41;95475.53;;;2.38;94.34
60433;BME280;46286;48.098;11.590;2023-04-07T00:47:07;95477.19;;;2.51;93.27
60433;BME280;46286;48.098;11.590;2023-04-07T00:49:36;95474.16;;;2.54;93.00
60433;BME280;46286;48.098;11.590;2023-04-07T00:52:02;95464.63;;;2.48;95.70
60433;BME280;46286;48.098;11.590;2023-04-07T00:54:29;95469.38;;;2.51;93.91
60433;BME280;46286;48.098;11.590;2023-04-07T00:56:55;95469.78;;;2.67;92.60
60433;BME280;46286;48.098;11.590;2023-04-07T00:59:21;95469.09;;;2.59;93.30
60433;BME280;46286;48.098;11.590;2023-04-07T01:01:57;95459.78;;;2.70;92.46
60433;BME280;46286;48.098;11.590;2023-04-07T01:04:40;95463.59;;;2.68;93.15
60433;BME280;46286;48.098;11.590;2023-04-07T01:07:17;95462.53;;;2.57;94.85
60433;BME280;46286;48.098;11.590;2023-04-07T01:09:58;95457.50;;;2.74;93.04
60433;BME280;46286;48.098;11.590;2023-04-07T01:12:38;95465.53;;;2.72;92.71
60433;BME280;46286;48.098;11.590;2023-04-07T01:15:09;95454.78;;;2.69;93.60
60433;BME280;46286;48.098;11.590;2023-04-07T01:17:41;95456.38;;;2.70;92.27
60433;BME280;46286;48.098;11.590;2023-04-07T01:20:11;95460.69;;;2.76;92.37
60433;BME280;46286;48.098;11.590;2023-04-07T01:22:56;95454.09;;;2.62;92.69
60433;BME280;46286;48.098;11.590;2023-04-07T01:25:34;95450.91;;;2.59;93.86
60433;BME280;46286;48.098;11.590;2023-04-07T01:30:30;95457.00;;;2.53;95.30
60433;BME280;46286;48.098;11.590;2023-04-07T01:32:58;95449.75;;;2.55;95.45
60433;BME280;46286;48.098;11.590;2023-04-07T01:35:26;95453.38;;;2.54;95.97
60433;BME280;46286;48.098;11.590;2023-04-07T01:37:54;95451.78;;;2.53;96.57
60433;BME280;46286;48.098;11.590;2023-04-07T01:40:21;95452.06;;;2.64;95.98
60433;BME280;46286;48.098;11.590;2023-04-07T01:42:47;95443.16;;;2.71;96.14
60433;BME280;46286;48.098;11.590;2023-04-07T01:45:15;95453.47;;;2.78;95.99
60433;BME280;46286;48.098;11.590;2023-04-07T01:47:42;95440.31;;;2.73;96.86
60433;BME280;46286;48.098;11.590;2023-04-07T01:50:10;95441.03;;;2.80;97.20
60433;BME280;46286;48.098;11.590;2023-04-07T01:52:37;95444.22;;;2.82;98.00
60433;BME280;46286;48.098;11.590;2023-04-07T01:55:03;95439.25;;;2.92;97.89
60433;BME280;46286;48.098;11.590;2023-04-07T01:57:29;95443.22;;;2.95;98.60
60433;BME280;46286;48.098;11.590;2023-04-07T01:59:55;95439.63;;;3.08;98.80
60433;BME280;46286;48.098;11.590;2023-04-07T02:02:21;95441.34;;;3.14;98.54
60433;BME280;46286;48.098;11.590;2023-04-07T02:04:57;95438.88;;;3.19;98.74
60433;BME280;46286;48.098;11.590;2023-04-07T02:07:38;95433.91;;;3.29;98.99
60433;BME280;46286;48.098;11.590;2023-04-07T02:10:09;95433.22;;;3.22;100.00
60433;BME280;46286;48.098;11.590;2023-04-07T02:12:37;95427.13;;;3.28;100.00
60433;BME280;46286;48.098;11.590;2023-04-07T02:15:06;95433.00;;;3.36;100.00
60433;BME280;46286;48.098;11.590;2023-04-07T02:17:35;95433.44;;;3.44;100.00
60433;BME280;46286;48.098;11.590;2023-04-07T02:20:02;95424.19;;;3.60;100.00
60433;BME280;46286;48.098;11.590;2023-04-07T02:22:29;95436.63;;;3.70;100.00
60433;BME280;46286;48.098;11.590;2023-04-07T02:24:56;95430.97;;;3.85;100.00
60433;BME280;46286;48.098;11.590;2023-04-07T02:27:21;95425.97;;;3.95;100.00
60433;BME280;46286;48.098;11.590;2023-04-07T02:29:47;95419.16;;;3.94;100.00
60433;BME280;46286;48.098;11.590;2023-04-07T02:32:12;95419.84;;;4.02;100.00
60433;BME280;46286;48.098;11.590;2023-04-07T02:34:38;95418.25;;;4.01;100.00
60433;BME280;46286;48.098;11.590;2023-04-07T02:37:03;95420.97;;;4.06;100.00
60433;BME280;46286;48.098;11.590;2023-04-07T02:39:29;95430.91;;;4.09;100.00
60433;BME280;46286;48.098;11.590;2023-04-07T02:41:54;95431.69;;;4.09;100.00
60433;BME280;46286;48.098;11.590;2023-04-07T02:44:20;95438.63;;;4.04;100.00
60433;BME280;46286;48.098;11.590;2023-04-07T02:46:46;95441.34;;;4.09;100.00
60433;BME280;46286;48.098;11.590;2023-04-07T02:49:11;95446.53;;;4.09;100.00
60433;BME280;46286;48.098;11.590;2023-04-07T02:51:37;95435.47;;;4.02;100.00
60433;BME280;46286;48.098;11.590;2023-04-07T02:54:02;95443.16;;;3.96;100.00
60433;BME280;46286;48.098;11.590;2023-04-07T02:56:28;95437.50;;;3.99;100.00
60433;BME280;46286;48.098;11.590;2023-04-07T02:58:53;95437.63;;;3.93;100.00
60433;BME280;46286;48.098;11.590;2023-04-07T03:01:19;95438.41;;;3.93;100.00
60433;BME280;46286;48.098;11.590;2023-04-07T03:03:44;95432.75;;;3.96;100.00
60433;BME280;46286;48.098;11.590;2023-04-07T03:06:12;95433.19;;;3.93;100.00
60433;BME280;46286;48.098;11.590;2023-04-07T03:08:38;95437.75;;;3.86;100.00
60433;BME280;46286;48.098;11.590;2023-04-07T03:11:03;95435.25;;;3.91;100.00
60433;BME280;46286;48.098;11.590;2023-04-07T03:13:29;95437.75;;;3.74;100.00
60433;BME280;46286;48.098;11.590;2023-04-07T03:15:56;95436.84;;;3.69;100.00
60433;BME280;46286;48.098;11.590;2023-04-07T03:18:22;95431.56;;;3.63;100.00
60433;BME280;46286;48.098;11.590;2023-04-07T03:20:48;95434.03;;;3.70;100.00
60433;BME280;46286;48.098;11.590;2023-04-07T03:23:13;95433.03;;;3.59;100.00
60433;BME280;46286;48.098;11.590;2023-04-07T03:25:39;95426.22;;;3.58;100.00
60433;BME280;46286;48.098;11.590;2023-04-07T03:28:05;95423.94;;;3.50;100.00
60433;BME280;46286;48.098;11.590;2023-04-07T03:30:31;95428.84;;;3.46;100.00
60433;BME280;46286;48.098;11.590;2023-04-07T03:32:57;95430.53;;;3.41;100.00
60433;BME280;46286;48.098;11.590;2023-04-07T03:35:23;95423.03;;;3.33;100.00
60433;BME280;46286;48.098;11.590;2023-04-07T03:37:48;95427.34;;;3.39;100.00
60433;BME280;46286;48.098;11.590;2023-04-07T03:40:14;95426.66;;;3.32;100.00
60433;BME280;46286;48.098;11.590;2023-04-07T03:42:39;95413.66;;;3.20;100.00
60433;BME280;46286;48.098;11.590;2023-04-07T03:45:05;95414.19;;;3.10;100.00
60433;BME280;46286;48.098;11.590;2023-04-07T03:47:31;95418.94;;;3.13;100.00
60433;BME280;46286;48.098;11.590;2023-04-07T03:49:57;95417.47;;;3.05;100.00
60433;BME280;46286;48.098;11.590;2023-04-07T03:52:22;95405.59;;;2.98;100.00
60433;BME280;46286;48.098;11.590;2023-04-07T03:54:48;95408.31;;;3.03;100.00
60433;BME280;46286;48.098;11.590;2023-04-07T03:57:13;95409.53;;;3.00;100.00
60433;BME280;46286;48.098;11.590;2023-04-07T03:59:39;95416.69;;;3.05;100.00
60433;BME280;46286;48.098;11.590;2023-04-07T04:02:04;95413.19;;;3.11;100.00
60433;BME280;46286;48.098;11.590;2023-04-07T04:04:30;95413.06;;;3.06;100.00
60433;BME280;46286;48.098;11.590;2023-04-07T04:06:55;95403.91;;;3.03;100.00
60433;BME280;46286;48.098;11.590;2023-04-07T04:09:21;95408.50;;;2.89;100.00
60433;BME280;46286;48.098;11.590;2023-04-07T04:11:46;95407.31;;;3.04;100.00
60433;BME280;46286;48.098;11.590;2023-04-07T04:14:12;95404.47;;;2.93;100.00
60433;BME280;46286;48.098;11.590;2023-04-07T04:16:37;95404.78;;;2.85;100.00
60433;BME280;46286;48.098;11.590;2023-04-07T04:19:03;95399.34;;;2.87;100.00
60433;BME280;46286;48.098;11.590;2023-04-07T04:21:28;95404.91;;;2.90;100.00
60433;BME280;46286;48.098;11.590;2023-04-07T04:23:54;95400.13;;;2.87;100.00
60433;BME280;46286;48.098;11.590;2023-04-07T04:26:19;95394.94;;;2.87;100.00
60433;BME280;46286;48.098;11.590;2023-04-07T04:28:50;95397.44;;;2.82;100.00
60433;BME280;46286;48.098;11.590;2023-04-07T04:31:16;95389.94;;;2.74;100.00
60433;BME280;46286;48.098;11.590;2023-04-07T04:33:41;95394.69;;;2.77;100.00
60433;BME280;46286;48.098;11.590;2023-04-07T04:36:07;95397.19;;;2.72;100.00
60433;BME280;46286;48.098;11.590;2023-04-07T04:38:33;95397.19;;;2.72;100.00
60433;BME280;46286;48.098;11.590;2023-04-07T04:40:58;95401.94;;;2.75;100.00
60433;BME280;46286;48.098;11.590;2023-04-07T04:43:24;95403.53;;;2.76;100.00
60433;BME280;46286;48.098;11.590;2023-04-07T04:45:49;95399.19;;;2.70;100.00
60433;BME280;46286;48.098;11.590;2023-04-07T04:48:15;95401.94;;;2.75;100.00
60433;BME280;46286;48.098;11.590;2023-04-07T04:50:41;95407.13;;;2.75;100.00
60433;BME280;46286;48.098;11.590;2023-04-07T04:53:08;95394.00;;;2.70;100.00
60433;BME280;46286;48.098;11.590;2023-04-07T04:55:34;95401.94;;;2.75;100.00
60433;BME280;46286;48.098;11.590;2023-04-07T04:58:00;95395.38;;;2.84;100.00
60433;BME280;46286;48.098;11.590;2023-04-07T05:00:26;95392.69;;;2.79;100.00
60433;BME280;46286;48.098;11.590;2023-04-07T05:02:52;95385.75;;;2.73;100.00
60433;BME280;46286;48.098;11.590;2023-04-07T05:05:17;95391.53;;;2.75;100.00
60433;BME280;46286;48.098;11.590;2023-04-07T05:07:43;95399.03;;;2.83;100.00
60433;BME280;46286;48.098;11.590;2023-04-07T05:10:08;95381.47;;;2.78;100.00
60433;BME280;46286;48.098;11.590;2023-04-07T05:12:34;95389.50;;;2.77;100.00
60433;BME280;46286;48.098;11.590;2023-04-07T05:15:00;95391.78;;;2.85;100.00
60433;BME280;46286;48.098;11.590;2023-04-07T05:17:26;95386.34;;;2.75;100.00
60433;BME280;46286;48.098;11.590;2023-04-07T05:19:51;95391.53;;;2.75;100.00
60433;BME280;46286;48.098;11.590;2023-04-07T05:22:17;95383.84;;;2.80;100.00
60433;BME280;46286;48.098;11.590;2023-04-07T05:24:42;95384.28;;;2.77;100.00
60433;BME280;46286;48.098;11.590;2023-04-07T05:27:08;95385.34;;;2.76;100.00
60433;BME280;46286;48.098;11.590;2023-04-07T05:29:33;95391.09;;;2.78;100.00
60433;BME280;46286;48.098;11.590;2023-04-07T05:31:59;95380.00;;;2.71;100.00
60433;BME280;46286;48.098;11.590;2023-04-07T05:34:26;95381.75;;;2.89;100.00
60433;BME280;46286;48.098;11.590;2023-04-07T05:36:52;95387.13;;;2.75;100.00
60433;BME280;46286;48.098;11.590;2023-04-07T05:39:17;95390.31;;;2.77;100.00
60433;BME280;46286;48.098;11.590;2023-04-07T05:41:43;95388.84;;;2.82;100.00
60433;BME280;46286;48.098;11.590;2023-04-07T05:44:08;95386.34;;;2.75;100.00
60433;BME280;46286;48.098;11.590;2023-04-07T05:46:34;95383.66;;;2.93;100.00
60433;BME280;46286;48.098;11.590;2023-04-07T05:48:59;95385.94;;;3.02;100.00
60433;BME280;46286;48.098;11.590;2023-04-07T05:51:25;95391.03;;;3.08;100.00
60433;BME280;46286;48.098;11.590;2023-04-07T05:53:51;95395.66;;;3.18;100.00
60433;BME280;46286;48.098;11.590;2023-04-07T05:56:16;95389.56;;;3.24;100.00
60433;BME280;46286;48.098;11.590;2023-04-07T05:58:42;95379.38;;;3.35;100.00
60433;BME280;46286;48.098;11.590;2023-04-07T06:01:07;95381.66;;;3.19;100.00
60433;BME280;46286;48.098;11.590;2023-04-07T06:03:33;95373.84;;;3.19;100.00
60433;BME280;46286;48.098;11.590;2023-04-07T06:05:58;95384.81;;;3.21;100.00
60433;BME280;46286;48.098;11.590;2023-04-07T06:08:24;95373.28;;;3.17;100.00
60433;BME280;46286;48.098;11.590;2023-04-07T06:10:49;95376.91;;;3.16;100.00
60433;BME280;46286;48.098;11.590;2023-04-07T06:13:15;95375.78;;;3.12;100.00
60433;BME280;46286;48.098;11.590;2023-04-07T06:15:41;95376.34;;;3.14;100.00
60433;BME280;46286;48.098;11.590;2023-04-07T06:18:06;95364.22;;;3.32;100.00
60433;BME280;46286;48.098;11.590;2023-04-07T06:20:32;95368.56;;;3.38;100.00
60433;BME280;46286;48.098;11.590;2023-04-07T06:22:57;95367.06;;;3.30;100.00
60433;BME280;46286;48.098;11.590;2023-04-07T06:25:23;95370.91;;;3.27;100.00
60433;BME280;46286;48.098;11.590;2023-04-07T06:27:49;95361.09;;;3.29;100.00
60433;BME280;46286;48.098;11.590;2023-04-07T06:30:15;95361.28;;;3.40;100.00
60433;BME280;46286;48.098;11.590;2023-04-07T06:32:40;95353.16;;;3.48;100.00
60433;BME280;46286;48.098;11.590;2023-04-07T06:35:06;95348.94;;;3.59;100.00
60433;BME280;46286;48.098;11.590;2023-04-07T06:37:32;95342.03;;;3.64;100.00
60433;BME280;46286;48.098;11.590;2023-04-07T06:39:57;95348.72;;;3.60;100.00
60433;BME280;46286;48.098;11.590;2023-04-07T06:42:23;95347.50;;;3.51;100.00
60433;BME280;46286;48.098;11.590;2023-04-07T06:44:49;95346.53;;;3.81;100.00
60433;BME280;46286;48.098;11.590;2023-04-07T06:47:14;95348.56;;;3.79;100.00
60433;BME280;46286;48.098;11.590;2023-04-07T06:49:40;95350.16;;;3.80;100.00
60433;BME280;46286;48.098;11.590;2023-04-07T06:52:05;95342.22;;;3.75;100.00
60433;BME280;46286;48.098;11.590;2023-04-07T06:54:31;95346.72;;;3.91;100.00
60433;BME280;46286;48.098;11.590;2023-04-07T06:56:56;95339.66;;;4.04;100.00
60433;BME280;46286;48.098;11.590;2023-04-07T06:59:23;95345.09;;;4.14;100.00
60433;BME280;46286;48.098;11.590;2023-04-07T07:01:49;95344.09;;;4.32;100.00
60433;BME280;46286;48.098;11.590;2023-04-07T07:04:15;95344.78;;;4.27;100.00
60433;BME280;46286;48.098;11.590;2023-04-07T07:06:40;95342.00;;;4.46;100.00
60433;BME280;46286;48.098;11.590;2023-04-07T07:09:06;95336.41;;;4.54;100.00
60433;BME280;46286;48.098;11.590;2023-04-07T07:11:31;95341.22;;;4.62;100.00
60433;BME280;46286;48.098;11.590;2023-04-07T07:13:57;95346.63;;;4.73;100.00
60433;BME280;46286;48.098;11.590;2023-04-07T07:16:22;95340.91;;;5.10;100.00
60433;BME280;46286;48.098;11.590;2023-04-07T07:18:51;95348.91;;;5.03;100.00
60433;BME280;46286;48.098;11.590;2023-04-07T07:21:17;95350.50;;;4.87;100.00
60433;BME280;46286;48.098;11.590;2023-04-07T07:23:43;95356.56;;;5.10;100.00
60433;BME280;46286;48.098;11.590;2023-04-07T07:26:08;95344.47;;;5.37;100.00
60433;BME280;46286;48.098;11.590;2023-04-07T07:28:34;95348.19;;;5.42;100.00
60433;BME280;46286;48.098;11.590;2023-04-07T07:31:00;95351.31;;;5.44;100.00
60433;BME280;46286;48.098;11.590;2023-04-07T07:33:26;95356.06;;;5.47;100.00
60433;BME280;46286;48.098;11.590;2023-04-07T07:35:51;95350.53;;;5.43;100.00
60433;BME280;46286;48.098;11.590;2023-04-07T07:38:17;95347.94;;;5.65;100.00
60433;BME280;46286;48.098;11.590;2023-04-07T07:40:42;95341.63;;;5.61;100.00
60433;BME280;46286;48.098;11.590;2023-04-07T07:43:08;95344.13;;;5.95;100.00
60433;BME280;46286;48.098;11.590;2023-04-07T07:45:33;95351.84;;;5.85;100.00
60433;BME280;46286;48.098;11.590;2023-04-07T07:47:59;95349.00;;;6.09;100.00
60433;BME280;46286;48.098;11.590;2023-04-07T07:50:24;95356.47;;;5.78;100.00
60433;BME280;46286;48.098;11.590;2023-04-07T07:52:50;95352.59;;;6.02;100.00
60433;BME280;46286;48.098;11.590;2023-04-07T07:55:16;95352.69;;;5.68;100.00
60433;BME280;46286;48.098;11.590;2023-04-07T07:57:41;95348.19;;;5.86;100.00
60433;BME280;46286;48.098;11.590;2023-04-07T08:00:07;95345.16;;;5.94;100.00
60433;BME280;46286;48.098;11.590;2023-04-07T08:02:33;95344.91;;;5.96;100.00
60433;BME280;46286;48.098;11.590;2023-04-07T08:05:00;95345.25;;;5.99;100.00
60433;BME280;46286;48.098;11.590;2023-04-07T08:07:26;95350.88;;;5.91;100.00
60433;BME280;46286;48.098;11.590;2023-04-07T08:09:52;95348.31;;;5.74;100.00
60433;BME280;46286;48.098;11.590;2023-04-07T08:12:17;95343.13;;;5.96;100.00
60433;BME280;46286;48.098;11.590;2023-04-07T08:14:43;95351.38;;;5.88;100.00
60433;BME280;46286;48.098;11.590;2023-04-07T08:17:09;95336.78;;;5.92;100.00
60433;BME280;46286;48.098;11.590;2023-04-07T08:19:35;95341.50;;;6.12;100.00
60433;BME280;46286;48.098;11.590;2023-04-07T08:22:00;95333.50;;;6.24;100.00
60433;BME280;46286;48.098;11.590;2023-04-07T08:24:27;95341.97;;;6.36;100.00
60433;BME280;46286;48.098;11.590;2023-04-07T08:26:53;95334.78;;;6.49;100.00
60433;BME280;46286;48.098;11.590;2023-04-07T08:29:18;95336.06;;;6.46;100.00
60433;BME280;46286;48.098;11.590;2023-04-07T08:31:44;95336.47;;;6.60;100.00
60433;BME280;46286;48.098;11.590;2023-04-07T08:34:10;95327.88;;;6.37;100.00
60433;BME280;46286;48.098;11.590;2023-04-07T08:36:35;95335.53;;;6.76;100.00
60433;BME280;46286;48.098;11.590;2023-04-07T08:39:01;95331.19;;;6.87;100.00
60433;BME280;46286;48.098;11.590;2023-04-07T08:41:36;95328.06;;;6.85;100.00
60433;BME280;46286;48.098;11.590;2023-04-07T08:44:02;95329.41;;;6.93;100.00
60433;BME280;46286;48.098;11.590;2023-04-07T08:46:28;95329.78;;;7.07;100.00
60433;BME280;46286;48.098;11.590;2023-04-07T08:48:55;95320.72;;;7.25;100.00
60433;BME280;46286;48.098;11.590;2023-04-07T08:51:31;95327.66;;;7.46;100.00
60433;BME280;46286;48.098;11.590;2023-04-07T08:54:10;95325.91;;;7.62;100.00
60433;BME280;46286;48.098;11.590;2023-04-07T08:56:38;95327.31;;;7.80;100.00
60433;BME280;46286;48.098;11.590;2023-04-07T08:59:08;95324.66;;;7.75;100.00
60433;BME280;46286;48.098;11.590;2023-04-07T09:01:35;95337.63;;;7.50;100.00
60433;BME280;46286;48.098;11.590;2023-04-07T09:04:05;95327.78;;;7.67;100.00
60433;BME280;46286;48.098;11.590;2023-04-07T09:06:35;95325.50;;;7.86;100.00
60433;BME280;46286;48.098;11.590;2023-04-07T09:09:01;95324.06;;;7.58;100.00
60433;BME280;46286;48.098;11.590;2023-04-07T09:11:28;95322.03;;;7.70;100.00
60433;BME280;46286;48.098;11.590;2023-04-07T09:13:54;95327.31;;;7.80;100.00
60433;BME280;46286;48.098;11.590;2023-04-07T09:16:21;95325.75;;;7.90;100.00
60433;BME280;46286;48.098;11.590;2023-04-07T09:18:46;95324.28;;;8.09;100.00
60433;BME280;46286;48.098;11.590;2023-04-07T09:21:12;95318.78;;;8.11;98.03
60433;BME280;46286;48.098;11.590;2023-04-07T09:23:38;95318.00;;;8.21;100.00
60433;BME280;46286;48.098;11.590;2023-04-07T09:28:44;95319.56;;;8.17;100.00
60433;BME280;46286;48.098;11.590;2023-04-07T09:31:10;95313.25;;;8.02;99.60
60433;BME280;46286;48.098;11.590;2023-04-07T09:33:35;95314.53;;;8.00;98.48
60433;BME280;46286;48.098;11.590;2023-04-07T09:36:05;95316.78;;;8.49;98.23
60433;BME280;46286;48.098;11.590;2023-04-07T09:38:37;95306.53;;;8.42;96.45
60433;BME280;46286;48.098;11.590;2023-04-07T09:41:08;95314.97;;;8.65;94.97
60433;BME280;46286;48.098;11.590;2023-04-07T09:43:35;95308.13;;;8.95;87.49
60433;BME280;46286;48.098;11.590;2023-04-07T09:46:16;95314.97;;;8.75;92.79
60433;BME280;46286;48.098;11.590;2023-04-07T09:48:45;95300.75;;;9.28;93.03
60433;BME280;46286;48.098;11.590;2023-04-07T09:51:14;95293.31;;;9.61;87.60
60433;BME280;46286;48.098;11.590;2023-04-07T09:53:43;95287.34;;;10.05;81.75
60433;BME280;46286;48.098;11.590;2023-04-07T09:56:09;95290.69;;;9.66;77.94
60433;BME280;46286;48.098;11.590;2023-04-07T09:58:38;95288.63;;;9.42;84.95
60433;BME280;46286;48.098;11.590;2023-04-07T10:01:09;95299.47;;;9.05;88.27
60433;BME280;46286;48.098;11.590;2023-04-07T10:03:36;95295.53;;;8.92;86.40
60433;BME280;46286;48.098;11.590;2023-04-07T10:06:03;95297.38;;;9.01;80.96
60433;BME280;46286;48.098;11.590;2023-04-07T10:08:36;95292.41;;;8.84;78.59
60433;BME280;46286;48.098;11.590;2023-04-07T10:11:03;95293.94;;;9.16;82.32
60433;BME280;46286;48.098;11.590;2023-04-07T10:13:30;95279.94;;;9.52;78.37
60433;BME280;46286;48.098;11.590;2023-04-07T10:15:57;95282.44;;;9.88;77.16
60433;BME280;46286;48.098;11.590;2023-04-07T10:18:31;95286.31;;;10.01;74.19
60433;BME280;46286;48.098;11.590;2023-04-07T10:21:01;95286.84;;;9.98;74.89
60433;BME280;46286;48.098;11.590;2023-04-07T10:26:16;95279.19;;;9.41;76.81
60433;BME280;46286;48.098;11.590;2023-04-07T10:28:45;95287.63;;;9.33;75.54
60433;BME280;46286;48.098;11.590;2023-04-07T10:31:13;95275.50;;;9.42;75.55
60433;BME280;46286;48.098;11.590;2023-04-07T10:33:43;95286.59;;;10.49;66.98
60433;BME280;46286;48.098;11.590;2023-04-07T10:36:10;95274.13;;;11.96;63.41
60433;BME280;46286;48.098;11.590;2023-04-07T10:38:36;95279.16;;;12.17;63.35
60433;BME280;46286;48.098;11.590;2023-04-07T10:41:30;95278.28;;;11.54;64.51
60433;BME280;46286;48.098;11.590;2023-04-07T10:43:57;95276.69;;;11.05;66.40
60433;BME280;46286;48.098;11.590;2023-04-07T10:46:23;95272.56;;;11.95;62.60
60433;BME280;46286;48.098;11.590;2023-04-07T10:49:08;95274.94;;;12.54;56.48
60433;BME280;46286;48.098;11.590;2023-04-07T10:51:34;95270.06;;;13.69;54.71
60433;BME280;46286;48.098;11.590;2023-04-07T10:59:29;95274.69;;;11.21;63.51
60433;BME280;46286;48.098;11.590;2023-04-07T11:04:46;95272.25;;;11.78;60.58
60433;BME280;46286;48.098;11.590;2023-04-07T11:07:13;95269.66;;;11.73;62.54
60433;BME280;46286;48.098;11.590;2023-04-07T11:09:40;95267.75;;;11.54;63.99
60433;BME280;46286;48.098;11.590;2023-04-07T11:12:07;95267.41;;;11.85;59.81
60433;BME280;46286;48.098;11.590;2023-04-07T11:14:33;95260.69;;;11.74;60.32
60433;BME280;46286;48.098;11.590;2023-04-07T11:17:02;95258.91;;;11.45;63.52
60433;BME280;46286;48.098;11.590;2023-04-07T11:19:28;95264.38;;;11.73;59.32
60433;BME280;46286;48.098;11.590;2023-04-07T11:22:15;95260.25;;;11.67;61.45
60433;BME280;46286;48.098;11.590;2023-04-07T11:24:40;95262.00;;;11.23;62.81
60433;BME280;46286;48.098;11.590;2023-04-07T11:30:48;95262.97;;;11.08;60.38
60433;BME280;46286;48.098;11.590;2023-04-07T11:36:50;95245.09;;;11.53;60.28
60433;BME280;46286;48.098;11.590;2023-04-07T11:39:21;95252.97;;;12.21;58.79
60433;BME280;46286;48.098;11.590;2023-04-07T11:41:48;95256.53;;;12.11;60.29
60433;BME280;46286;48.098;11.590;2023-04-07T11:44:14;95252.38;;;12.95;58.14
60433;BME280;46286;48.098;11.590;2023-04-07T12:10:22;95232.38;;;13.36;53.28
60433;BME280;46286;48.098;11.590;2023-04-07T12:12:54;95237.63;;;13.08;54.06
60433;BME280;46286;48.098;11.590;2023-04-07T12:15:19;95242.00;;;12.65;57.09
60433;BME280;46286;48.098;11.590;2023-04-07T12:17:46;95233.16;;;13.50;55.26
60433;BME280;46286;48.098;11.590;2023-04-07T12:20:13;95238.88;;;13.43;53.05
60433;BME280;46286;48.098;11.590;2023-04-07T12:22:40;95239.81;;;13.75;52.31
60433;BME280;46286;48.098;11.590;2023-04-07T12:25:05;95239.09;;;13.97;51.27
60433;BME280;46286;48.098;11.590;2023-04-07T12:27:31;95239.84;;;15.25;49.23
60433;BME280;46286;48.098;11.590;2023-04-07T12:29:57;95244.13;;;14.81;48.59
60433;BME280;46286;48.098;11.590;2023-04-07T12:32:23;95244.69;;;14.55;47.26
60433;BME280;46286;48.098;11.590;2023-04-07T12:34:48;95238.44;;;13.50;49.27
60433;BME280;46286;48.098;11.590;2023-04-07T12:37:14;95239.38;;;13.12;53.92
60433;BME280;46286;48.098;11.590;2023-04-07T12:39:39;95236.69;;;13.59;50.36
60433;BME280;46286;48.098;11.590;2023-04-07T12:42:05;95241.03;;;11.85;54.84
60433;BME280;46286;48.098;11.590;2023-04-07T12:44:32;95242.66;;;11.81;57.76
60433;BME280;46286;48.098;11.590;2023-04-07T12:46:58;95240.63;;;12.54;58.73
60433;BME280;46286;48.098;11.590;2023-04-07T12:49:23;95238.50;;;12.18;61.15
60433;BME280;46286;48.098;11.590;2023-04-07T12:51:49;95241.13;;;11.75;65.42
60433;BME280;46286;48.098;11.590;2023-04-07T12:54:14;95235.09;;;11.74;64.18
60433;BME280;46286;48.098;11.590;2023-04-07T12:56:40;95231.16;;;11.72;63.83
60433;BME280;46286;48.098;11.590;2023-04-07T12:59:06;95236.47;;;11.23;65.20
60433;BME280;46286;48.098;11.590;2023-04-07T13:01:33;95241.47;;;10.96;66.82
60433;BME280;46286;48.098;11.590;2023-04-07T13:03:59;95244.31;;;11.29;64.01
60433;BME280;46286;48.098;11.590;2023-04-07T13:06:26;95249.09;;;11.26;65.72
60433;BME280;46286;48.098;11.590;2023-04-07T13:08:51;95246.03;;;11.14;67.73
60433;BME280;46286;48.098;11.590;2023-04-07T13:11:17;95240.16;;;11.22;65.55
60433;BME280;46286;48.098;11.590;2023-04-07T13:13:43;95241.94;;;11.03;65.80
60433;BME280;46286;48.098;11.590;2023-04-07T13:16:08;95243.28;;;11.24;65.22
60433;BME280;46286;48.098;11.590;2023-04-07T13:18:34;95248.91;;;10.88;64.40
60433;BME280;46286;48.098;11.590;2023-04-07T13:20:59;95248.31;;;10.97;64.93
60433;BME280;46286;48.098;11.590;2023-04-07T13:23:25;95249.97;;;10.87;65.41
60433;BME280;46286;48.098;11.590;2023-04-07T13:25:51;95242.91;;;11.12;66.09
60433;BME280;46286;48.098;11.590;2023-04-07T13:28:17;95251.53;;;10.88;64.54
60433;BME280;46286;48.098;11.590;2023-04-07T13:30:46;95241.84;;;11.13;65.47
60433;BME280;46286;48.098;11.590;2023-04-07T13:33:11;95238.25;;;11.04;63.28
60433;BME280;46286;48.098;11.590;2023-04-07T13:35:37;95237.63;;;10.83;66.14
60433;BME280;46286;48.098;11.590;2023-04-07T13:38:03;95234.63;;;10.95;65.66